createdAt,value
2018-02-24T00:00:39.737Z,31.00
2018-02-24T00:03:09.551Z,22.85
2018-02-24T00:05:39.449Z,21.87
2018-02-24T00:08:09.806Z,26.17
2018-02-24T00:10:40.289Z,32.17
2018-02-24T00:13:10.331Z,31.30
2018-02-24T00:15:40.762Z,24.77
2018-02-24T00:18:10.696Z,25.90
2018-02-24T00:20:40.550Z,32.13
2018-02-24T00:23:10.891Z,24.35
2018-02-24T00:25:40.456Z,25.15
2018-02-24T00:28:10.119Z,23.25
2018-02-24T00:30:40.648Z,22.42
2018-02-24T00:33:10.544Z,21.30
2018-02-24T00:35:41.280Z,20.50
2018-02-24T00:38:11.681Z,18.95
2018-02-24T00:40:42.339Z,18.58
2018-02-24T00:43:15.844Z,18.98
2018-02-24T00:45:45.830Z,18.73
2018-02-24T00:48:16.900Z,18.08
2018-02-24T00:50:47.410Z,18.77
2018-02-24T00:53:17.923Z,17.90
2018-02-24T00:55:47.914Z,18.92
2018-02-24T00:58:17.662Z,19.75
2018-02-24T01:00:47.571Z,18.60
2018-02-24T01:03:18.010Z,18.23
2018-02-24T01:05:47.977Z,18.58
2018-02-24T01:08:18.351Z,19.60
2018-02-24T01:10:48.289Z,20.25
2018-02-24T01:13:19.171Z,19.35
2018-02-24T01:15:49.514Z,18.83
2018-02-24T01:18:19.605Z,19.45
2018-02-24T01:20:50.253Z,18.98
2018-02-24T01:23:20.614Z,20.30
2018-02-24T01:25:50.687Z,18.37
2018-02-24T01:28:20.495Z,19.98
2018-02-24T01:30:50.452Z,19.58
2018-02-24T01:33:20.392Z,20.27
2018-02-24T01:35:50.111Z,20.62
2018-02-24T01:38:20.954Z,19.40
2018-02-24T01:40:51.074Z,19.30
2018-02-24T01:43:21.881Z,19.95
2018-02-24T01:45:52.158Z,19.37
2018-02-24T01:48:21.837Z,19.45
2018-02-24T01:50:51.796Z,20.15
2018-02-24T01:53:22.376Z,21.10
2018-02-24T01:55:52.738Z,19.48
2018-02-24T01:58:22.983Z,21.80
2018-02-24T02:00:53.606Z,20.60
2018-02-24T02:03:23.798Z,20.75
2018-02-24T02:05:53.528Z,24.10
2018-02-24T02:08:23.560Z,19.60
2018-02-24T02:10:53.166Z,20.35
2018-02-24T02:13:22.912Z,20.80
2018-02-24T02:15:52.955Z,20.83
2018-02-24T02:18:23.150Z,20.50
2018-02-24T02:20:53.471Z,20.08
2018-02-24T02:23:23.440Z,19.73
2018-02-24T02:25:53.222Z,19.70
2018-02-24T02:28:23.265Z,21.00
2018-02-24T02:30:52.987Z,19.73
2018-02-24T02:33:23.047Z,20.42
2018-02-24T02:35:52.841Z,21.62
2018-02-24T02:38:22.473Z,20.85
2018-02-24T02:40:52.502Z,22.52
2018-02-24T02:43:22.907Z,24.12
2018-02-24T02:45:52.683Z,22.62
2018-02-24T02:48:22.762Z,21.30
2018-02-24T02:50:52.437Z,21.25
2018-02-24T02:53:22.363Z,23.23
2018-02-24T02:55:52.674Z,22.48
2018-02-24T02:58:22.570Z,22.00
2018-02-24T03:00:52.309Z,20.17
2018-02-24T03:03:22.261Z,20.20
2018-02-24T03:05:53.026Z,21.12
2018-02-24T03:08:24.802Z,21.45
2018-02-24T03:10:57.251Z,21.20
2018-02-24T03:13:27.075Z,21.15
2018-02-24T03:15:58.342Z,21.50
2018-02-24T03:18:28.638Z,21.37
2018-02-24T03:21:00.108Z,20.17
2018-02-24T03:23:30.366Z,20.67
2018-02-24T03:26:00.437Z,20.62
2018-02-24T03:28:30.379Z,21.35
2018-02-24T03:31:00.193Z,20.50
2018-02-24T03:33:33.889Z,21.33
2018-02-24T03:36:03.971Z,21.33
2018-02-24T03:38:34.739Z,19.73
2018-02-24T03:41:04.810Z,20.65
2018-02-24T03:43:34.419Z,21.30
2018-02-24T03:46:04.717Z,20.83
2018-02-24T03:48:34.825Z,20.70
2018-02-24T03:51:04.945Z,20.92
2018-02-24T03:53:34.861Z,20.77
2018-02-24T03:56:05.492Z,20.23
2018-02-24T03:58:35.747Z,22.50
2018-02-24T04:01:06.012Z,20.58
2018-02-24T04:03:36.165Z,21.17
2018-02-24T04:06:06.142Z,19.80
2018-02-24T04:08:35.955Z,20.73
2018-02-24T04:11:05.914Z,23.10
2018-02-24T04:13:35.674Z,20.83
2018-02-24T04:16:05.993Z,21.77
2018-02-24T04:18:36.236Z,21.95
2018-02-24T04:21:06.081Z,20.60
2018-02-24T04:23:36.023Z,22.35
2018-02-24T04:26:06.378Z,20.70
2018-02-24T04:28:36.084Z,21.55
2018-02-24T04:31:06.370Z,23.02
2018-02-24T04:33:36.801Z,22.00
2018-02-24T04:36:06.305Z,21.67
2018-02-24T04:38:36.653Z,23.40
2018-02-24T04:41:06.562Z,22.20
2018-02-24T04:43:36.382Z,20.62
2018-02-24T04:46:06.606Z,20.62
2018-02-24T04:48:36.453Z,22.00
2018-02-24T04:51:06.326Z,22.73
2018-02-24T04:53:36.825Z,22.33
2018-02-24T04:56:07.598Z,23.48
2018-02-24T04:58:37.676Z,21.80
2018-02-24T05:01:08.817Z,20.75
2018-02-24T05:03:38.708Z,21.25
2018-02-24T05:06:08.855Z,21.30
2018-02-24T05:08:39.096Z,23.27
2018-02-24T05:11:08.962Z,22.48
2018-02-24T05:13:38.843Z,23.33
2018-02-24T05:16:08.592Z,25.55
2018-02-24T05:18:38.306Z,22.75
2018-02-24T05:21:08.357Z,24.12
2018-02-24T05:23:38.781Z,23.62
2018-02-24T05:26:08.441Z,23.70
2018-02-24T05:28:38.290Z,23.80
2018-02-24T05:31:08.855Z,23.67
2018-02-24T05:33:38.764Z,23.60
2018-02-24T05:36:08.854Z,23.25
2018-02-24T05:38:39.044Z,22.05
2018-02-24T05:41:08.726Z,22.15
2018-02-24T05:43:38.842Z,22.85
2018-02-24T05:46:08.879Z,21.33
2018-02-24T05:48:39.156Z,21.15
2018-02-24T05:51:09.160Z,21.15
2018-02-24T05:53:40.121Z,20.90
2018-02-24T05:56:09.877Z,20.95
2018-02-24T05:58:39.701Z,20.05
2018-02-24T06:01:09.341Z,20.67
2018-02-24T06:03:38.991Z,20.20
2018-02-24T06:06:09.301Z,20.60
2018-02-24T06:08:39.476Z,20.58
2018-02-24T06:11:09.274Z,20.95
2018-02-24T06:13:39.267Z,20.92
2018-02-24T06:16:09.520Z,20.35
2018-02-24T06:18:39.307Z,20.30
2018-02-24T06:21:09.463Z,19.92
2018-02-24T06:23:39.340Z,19.65
2018-02-24T06:26:09.317Z,20.52
2018-02-24T06:28:39.074Z,19.67
2018-02-24T06:31:09.021Z,18.50
2018-02-24T06:33:39.359Z,20.45
2018-02-24T06:36:09.248Z,20.65
2018-02-24T06:38:39.350Z,19.95
2018-02-24T06:41:09.188Z,20.33
2018-02-24T06:43:39.342Z,20.45
2018-02-24T06:46:08.949Z,18.83
2018-02-24T06:48:39.094Z,19.58
2018-02-24T06:51:09.073Z,18.27
2018-02-24T06:53:39.150Z,19.48
2018-02-24T06:56:10.102Z,19.17
2018-02-24T06:58:40.602Z,19.92
2018-02-24T07:01:10.458Z,19.30
2018-02-24T07:03:43.476Z,19.50
2018-02-24T07:06:13.409Z,20.30
2018-02-24T07:08:43.695Z,19.73
2018-02-24T07:11:14.106Z,19.77
2018-02-24T07:13:44.401Z,19.90
2018-02-24T07:16:14.669Z,18.98
2018-02-24T07:18:45.778Z,19.55
2018-02-24T07:21:16.617Z,20.15
2018-02-24T07:23:46.514Z,20.02
2018-02-24T07:26:16.831Z,18.95
2018-02-24T07:28:47.728Z,19.30
2018-02-24T07:31:18.293Z,18.75
2018-02-24T07:33:48.609Z,19.98
2018-02-24T07:36:18.533Z,18.02
2018-02-24T07:38:48.874Z,18.55
2018-02-24T07:41:18.476Z,19.52
2018-02-24T07:43:48.546Z,20.20
2018-02-24T07:46:19.448Z,22.30
2018-02-24T07:48:49.479Z,19.83
2018-02-24T07:51:19.103Z,21.33
2018-02-24T07:53:51.992Z,21.00
2018-02-24T07:56:22.815Z,22.25
2018-02-24T07:58:52.450Z,25.00
2018-02-24T08:01:22.572Z,23.92
2018-02-24T08:03:52.267Z,25.67
2018-02-24T08:06:22.095Z,23.38
2018-02-24T08:08:53.921Z,22.13
2018-02-24T08:11:23.639Z,21.50
2018-02-24T08:13:53.455Z,30.08
2018-02-24T08:16:23.203Z,20.62
2018-02-24T08:18:52.803Z,22.98
2018-02-24T08:21:22.258Z,23.87
2018-02-24T08:23:52.276Z,18.98
2018-02-24T08:26:22.965Z,16.80
2018-02-24T08:28:52.390Z,18.15
2018-02-24T08:31:22.560Z,18.35
2018-02-24T08:33:52.195Z,17.05
2018-02-24T08:36:22.969Z,17.90
2018-02-24T08:38:53.277Z,18.60
2018-02-24T08:41:22.995Z,15.88
2018-02-24T08:43:52.469Z,24.60
2018-02-24T08:46:22.263Z,19.10
2018-02-24T08:48:51.931Z,20.73
2018-02-24T08:51:22.283Z,20.90
2018-02-24T08:53:52.820Z,18.67
2018-02-24T08:56:22.415Z,22.95
2018-02-24T08:58:51.860Z,17.85
2018-02-24T09:01:21.667Z,19.17
2018-02-24T09:03:51.469Z,17.75
2018-02-24T09:06:21.328Z,17.08
2018-02-24T09:08:51.152Z,16.62
2018-02-24T09:11:20.969Z,18.20
2018-02-24T09:13:50.617Z,26.25
2018-02-24T09:16:21.553Z,19.40
2018-02-24T09:18:51.210Z,17.48
2018-02-24T09:21:21.383Z,16.25
2018-02-24T09:23:51.804Z,17.55
2018-02-24T09:26:21.926Z,16.80
2018-02-24T09:28:51.449Z,21.55
2018-02-24T09:31:21.636Z,29.40
2018-02-24T09:33:51.634Z,17.00
2018-02-24T09:36:22.585Z,19.73
2018-02-24T09:38:53.350Z,18.77
2018-02-24T09:41:25.106Z,16.10
2018-02-24T09:43:54.944Z,20.95
2018-02-24T09:46:25.287Z,16.42
2018-02-24T09:48:54.981Z,16.17
2018-02-24T09:51:24.463Z,15.25
2018-02-24T09:53:54.431Z,12.20
2018-02-24T09:56:23.964Z,11.70
2018-02-24T09:58:53.475Z,11.57
2018-02-24T10:01:23.783Z,11.52
2018-02-24T10:03:53.718Z,11.45
2018-02-24T10:06:23.634Z,10.80
2018-02-24T10:08:53.920Z,10.43
2018-02-24T10:11:24.213Z,9.75
2018-02-24T10:13:53.639Z,8.80
2018-02-24T10:16:24.849Z,9.75
2018-02-24T10:18:54.753Z,8.38
2018-02-24T10:21:24.681Z,7.25
2018-02-24T10:23:54.437Z,7.40
2018-02-24T10:26:24.228Z,7.87
2018-02-24T10:28:53.638Z,8.32
2018-02-24T10:31:24.454Z,7.80
2018-02-24T10:33:55.072Z,7.62
2018-02-24T10:36:25.489Z,7.07
2018-02-24T10:38:56.921Z,6.80
2018-02-24T10:41:26.339Z,6.20
2018-02-24T10:43:56.175Z,6.87
2018-02-24T10:46:25.832Z,6.55
2018-02-24T10:49:03.952Z,6.55
2018-02-24T10:51:34.101Z,6.35
2018-02-24T10:54:03.526Z,6.93
2018-02-24T10:56:33.574Z,6.30
2018-02-24T10:59:03.636Z,6.65
2018-02-24T11:01:33.082Z,5.90
2018-02-24T11:04:03.867Z,6.60
2018-02-24T11:06:34.037Z,5.82
2018-02-24T11:09:03.528Z,6.30
2018-02-24T11:11:33.469Z,7.30
2018-02-24T11:14:03.278Z,9.07
2018-02-24T11:16:33.706Z,7.65
2018-02-24T11:19:04.159Z,7.30
2018-02-24T11:21:34.205Z,6.50
2018-02-24T11:24:04.154Z,6.68
2018-02-24T11:26:34.369Z,6.95
2018-02-24T11:29:05.154Z,7.50
2018-02-24T11:31:35.431Z,6.87
2018-02-24T11:34:05.034Z,7.05
2018-02-24T11:36:34.879Z,6.80
2018-02-24T11:39:04.446Z,6.50
2018-02-24T11:41:34.353Z,6.75
2018-02-24T11:44:04.290Z,7.68
2018-02-24T11:46:33.723Z,6.85
2018-02-24T11:49:03.509Z,6.75
2018-02-24T11:51:33.826Z,7.12
2018-02-24T11:54:03.644Z,6.37
2018-02-24T11:56:33.897Z,7.90
2018-02-24T11:59:03.476Z,5.90
2018-02-24T12:01:33.223Z,6.10
2018-02-24T12:04:02.713Z,5.30
2018-02-24T12:06:32.958Z,5.65
2018-02-24T12:09:02.402Z,5.55
2018-02-24T12:11:33.750Z,4.43
2018-02-24T12:14:03.263Z,5.45
2018-02-24T12:16:32.781Z,5.12
2018-02-24T12:19:02.242Z,5.05
2018-02-24T12:21:31.995Z,4.00
2018-02-24T12:24:03.788Z,4.07
2018-02-24T12:26:33.497Z,3.92
2018-02-24T12:29:02.977Z,4.53
2018-02-24T12:31:32.445Z,3.90
2018-02-24T12:34:01.953Z,4.40
2018-02-24T12:36:32.236Z,4.07
2018-02-24T12:39:01.702Z,4.12
2018-02-24T12:41:31.233Z,4.60
2018-02-24T12:44:00.854Z,4.28
2018-02-24T12:46:30.423Z,5.00
2018-02-24T12:48:59.880Z,6.40
2018-02-24T12:51:31.384Z,9.27
2018-02-24T12:54:01.899Z,8.00
2018-02-24T12:56:31.819Z,8.10
2018-02-24T12:59:07.177Z,11.57
2018-02-24T13:01:36.969Z,12.07
2018-02-24T13:04:11.696Z,9.90
2018-02-24T13:06:42.009Z,6.65
2018-02-24T13:09:11.998Z,7.57
2018-02-24T13:11:42.559Z,3.60
2018-02-24T13:14:12.919Z,2.37
2018-02-24T13:16:43.942Z,4.00
2018-02-24T13:19:14.386Z,2.20
2018-02-24T13:21:45.210Z,2.15
2018-02-24T13:24:14.733Z,2.72
2018-02-24T13:26:44.737Z,2.87
2018-02-24T13:29:15.301Z,2.17
2018-02-24T13:31:45.332Z,1.77
2018-02-24T13:34:14.772Z,1.90
2018-02-24T13:36:45.281Z,1.98
2018-02-24T13:39:14.799Z,4.30
2018-02-24T13:41:44.263Z,3.25
2018-02-24T13:44:13.829Z,2.60
2018-02-24T13:46:44.138Z,2.92
2018-02-24T13:49:13.699Z,3.37
2018-02-24T13:51:43.452Z,2.40
2018-02-24T13:54:14.862Z,2.72
2018-02-24T13:56:44.342Z,3.58
2018-02-24T13:59:14.472Z,3.17
2018-02-24T14:01:44.034Z,2.67
2018-02-24T14:04:13.578Z,1.70
2018-02-24T14:06:43.673Z,1.60
2018-02-24T14:09:14.075Z,1.60
2018-02-24T14:11:43.540Z,1.80
2018-02-24T14:14:13.810Z,1.62
2018-02-24T14:16:43.539Z,1.90
2018-02-24T14:19:12.945Z,1.50
2018-02-24T14:21:43.403Z,1.37
2018-02-24T14:24:16.102Z,1.87
2018-02-24T14:26:45.875Z,1.75
2018-02-24T14:29:16.061Z,1.50
2018-02-24T14:31:45.505Z,2.70
2018-02-24T14:34:14.912Z,2.92
2018-02-24T14:36:44.718Z,2.72
2018-02-24T14:39:14.180Z,4.10
2018-02-24T14:41:43.650Z,3.70
2018-02-24T14:44:13.386Z,3.45
2018-02-24T14:46:42.931Z,2.10
2018-02-24T14:49:12.654Z,2.70
2018-02-24T14:51:43.011Z,2.65
2018-02-24T14:54:12.795Z,2.92
2018-02-24T14:56:42.382Z,3.83
2018-02-24T14:59:12.284Z,4.97
2018-02-24T15:01:42.010Z,4.32
2018-02-24T15:04:11.505Z,2.40
2018-02-24T15:06:41.366Z,1.70
2018-02-24T15:09:11.181Z,1.50
2018-02-24T15:11:40.775Z,1.20
2018-02-24T15:14:11.152Z,1.40
2018-02-24T15:16:40.583Z,3.05
2018-02-24T15:19:10.040Z,3.25
2018-02-24T15:21:40.027Z,3.10
2018-02-24T15:24:10.429Z,2.05
2018-02-24T15:26:39.847Z,2.70
2018-02-24T15:29:10.152Z,2.55
2018-02-24T15:31:39.610Z,2.40
2018-02-24T15:34:09.515Z,2.42
2018-02-24T15:36:39.735Z,1.80
2018-02-24T15:39:09.902Z,2.50
2018-02-24T15:41:40.793Z,1.60
2018-02-24T15:44:10.522Z,3.97
2018-02-24T15:46:40.463Z,3.12
2018-02-24T15:49:10.225Z,2.10
2018-02-24T15:51:40.293Z,2.85
2018-02-24T15:54:09.740Z,2.15
2018-02-24T15:56:39.547Z,4.85
2018-02-24T15:59:09.411Z,3.97
2018-02-24T16:01:38.845Z,2.90
2018-02-24T16:04:09.112Z,2.78
2018-02-24T16:06:38.906Z,1.50
2018-02-24T16:09:08.306Z,2.30
2018-02-24T16:11:38.480Z,3.60
2018-02-24T16:14:08.193Z,4.10
2018-02-24T16:16:37.961Z,3.00
2018-02-24T16:19:07.397Z,4.07
2018-02-24T16:21:37.233Z,2.83
2018-02-24T16:24:06.637Z,4.30
2018-02-24T16:26:36.046Z,3.72
2018-02-24T16:29:05.775Z,2.92
2018-02-24T16:31:35.569Z,3.60
2018-02-24T16:34:05.537Z,3.67
2018-02-24T16:36:35.541Z,4.28
2018-02-24T16:39:05.266Z,3.08
2018-02-24T16:41:34.697Z,2.33
2018-02-24T16:44:04.434Z,2.10
2018-02-24T16:46:33.824Z,2.80
2018-02-24T16:49:03.348Z,3.95
2018-02-24T16:51:33.069Z,3.03
2018-02-24T16:54:02.587Z,3.30
2018-02-24T16:56:32.051Z,3.12
2018-02-24T16:59:01.947Z,3.55
2018-02-24T17:01:31.738Z,3.20
2018-02-24T17:04:01.647Z,2.97
2018-02-24T17:06:33.322Z,4.10
2018-02-24T17:09:02.814Z,3.50
2018-02-24T17:11:32.692Z,3.20
2018-02-24T17:14:02.242Z,2.80
2018-02-24T17:16:33.652Z,2.97
2018-02-24T17:19:03.820Z,2.35
2018-02-24T17:21:33.268Z,3.85
2018-02-24T17:24:04.073Z,5.15
2018-02-24T17:26:33.928Z,3.10
2018-02-24T17:29:03.407Z,2.30
2018-02-24T17:31:32.921Z,2.60
2018-02-24T17:34:02.846Z,2.45
2018-02-24T17:36:32.473Z,2.40
2018-02-24T17:39:02.354Z,2.30
2018-02-24T17:41:33.004Z,2.40
2018-02-24T17:44:02.472Z,2.75
2018-02-24T17:46:32.958Z,2.72
2018-02-24T17:49:03.265Z,2.40
2018-02-24T17:51:32.774Z,2.47
2018-02-24T17:54:02.312Z,2.90
2018-02-24T17:56:32.079Z,2.80
2018-02-24T17:59:01.536Z,2.30
2018-02-24T18:01:31.343Z,2.35
2018-02-24T18:04:01.203Z,2.62
2018-02-24T18:06:30.662Z,2.40
2018-02-24T18:09:01.225Z,1.83
2018-02-24T18:11:31.252Z,2.33
2018-02-24T18:14:00.969Z,2.45
2018-02-24T18:16:30.414Z,1.80
2018-02-24T18:18:59.881Z,2.12
2018-02-24T18:21:29.339Z,1.80
2018-02-24T18:23:59.078Z,1.75
2018-02-24T18:26:28.497Z,2.20
2018-02-24T18:28:59.934Z,1.98
2018-02-24T18:31:29.798Z,2.55
2018-02-24T18:33:59.219Z,2.70
2018-02-24T18:36:28.656Z,2.95
2018-02-24T18:38:59.924Z,2.75
2018-02-24T18:41:29.398Z,2.70
2018-02-24T18:43:59.673Z,3.50
2018-02-24T18:46:29.829Z,2.22
2018-02-24T18:48:59.304Z,2.92
2018-02-24T18:51:29.525Z,4.95
2018-02-24T18:53:59.286Z,4.00
2018-02-24T18:56:28.756Z,3.80
2018-02-24T18:58:59.273Z,3.83
2018-02-24T19:01:29.467Z,4.05
2018-02-24T19:04:02.087Z,2.70
2018-02-24T19:06:31.634Z,2.55
2018-02-24T19:09:01.379Z,2.70
2018-02-24T19:11:31.397Z,4.40
2018-02-24T19:14:00.955Z,4.40
2018-02-24T19:16:30.429Z,3.50
2018-02-24T19:18:59.980Z,3.20
2018-02-24T19:21:29.414Z,2.90
2018-02-24T19:24:00.780Z,3.72
2018-02-24T19:26:30.293Z,2.53
2018-02-24T19:28:59.869Z,2.45
2018-02-24T19:31:29.336Z,2.87
2018-02-24T19:33:58.802Z,2.75
2018-02-24T19:36:28.535Z,2.78
2018-02-24T19:38:59.044Z,2.53
2018-02-24T19:41:28.783Z,2.55
2018-02-24T19:43:58.393Z,2.60
2018-02-24T19:46:28.630Z,2.35
2018-02-24T19:48:59.587Z,2.92
2018-02-24T19:51:29.711Z,2.45
2018-02-24T19:53:59.565Z,2.58
2018-02-24T19:56:29.136Z,3.05
2018-02-24T19:59:01.796Z,2.72
2018-02-24T20:01:31.263Z,2.80
2018-02-24T20:04:00.871Z,2.92
2018-02-24T20:06:31.025Z,3.10
2018-02-24T20:09:02.083Z,2.60
2018-02-24T20:11:31.543Z,2.95
2018-02-24T20:14:01.248Z,2.60
2018-02-24T20:16:30.840Z,2.60
2018-02-24T20:19:00.445Z,2.95
2018-02-24T20:21:30.285Z,2.80
2018-02-24T20:24:01.467Z,3.12
2018-02-24T20:26:31.382Z,3.50
2018-02-24T20:29:01.730Z,3.10
2018-02-24T20:31:32.088Z,2.83
2018-02-24T20:34:01.697Z,3.03
2018-02-24T20:36:31.147Z,2.78
2018-02-24T20:39:00.738Z,3.00
2018-02-24T20:41:30.276Z,2.95
2018-02-24T20:44:11.935Z,3.65
2018-02-24T20:46:41.605Z,3.15
2018-02-24T20:49:11.370Z,3.10
2018-02-24T20:51:41.978Z,3.28
2018-02-24T20:54:15.126Z,3.45
2018-02-24T20:56:45.019Z,3.15
2018-02-24T20:59:14.830Z,3.10
2018-02-24T21:01:45.318Z,2.85
2018-02-24T21:04:15.450Z,3.10
2018-02-24T21:06:45.080Z,3.30
2018-02-24T21:09:14.622Z,2.90
2018-02-24T21:11:44.590Z,3.37
2018-02-24T21:14:15.900Z,3.05
2018-02-24T21:16:46.965Z,2.70
2018-02-24T21:19:16.763Z,2.90
2018-02-24T21:21:46.188Z,2.87
2018-02-24T21:24:15.737Z,3.42
2018-02-24T21:26:45.315Z,2.92
2018-02-24T21:29:15.224Z,2.95
2018-02-24T21:31:45.405Z,3.72
2018-02-24T21:34:15.680Z,5.93
2018-02-24T21:36:45.880Z,6.82
2018-02-24T21:39:15.391Z,7.00
2018-02-24T21:41:45.203Z,7.00
2018-02-24T21:44:14.969Z,7.12
2018-02-24T21:46:44.504Z,11.10
2018-02-24T21:49:14.279Z,9.20
2018-02-24T21:51:43.693Z,13.90
2018-02-24T21:54:13.192Z,8.20
2018-02-24T21:56:42.769Z,10.45
2018-02-24T21:59:12.292Z,9.85
2018-02-24T22:01:41.785Z,10.85
2018-02-24T22:04:12.237Z,12.18
2018-02-24T22:06:42.615Z,9.45
2018-02-24T22:09:12.303Z,9.70
2018-02-24T22:11:41.771Z,9.10
2018-02-24T22:14:11.288Z,12.43
2018-02-24T22:16:40.826Z,8.00
2018-02-24T22:19:10.595Z,5.40
2018-02-24T22:21:40.214Z,3.83
2018-02-24T22:24:10.401Z,5.03
2018-02-24T22:26:40.424Z,4.10
2018-02-24T22:29:10.311Z,5.05
2018-02-24T22:31:39.790Z,3.60
2018-02-24T22:34:09.530Z,4.03
2018-02-24T22:36:39.039Z,4.45
2018-02-24T22:39:08.511Z,4.20
2018-02-24T22:41:38.720Z,3.87
2018-02-24T22:44:08.403Z,4.55
2018-02-24T22:46:37.943Z,3.45
2018-02-24T22:49:08.250Z,4.70
2018-02-24T22:51:38.973Z,5.28
2018-02-24T22:54:08.416Z,4.85
2018-02-24T22:56:38.129Z,5.00
2018-02-24T22:59:07.800Z,4.75
2018-02-24T23:01:37.239Z,5.43
2018-02-24T23:04:07.074Z,4.37
2018-02-24T23:06:36.504Z,5.20
2018-02-24T23:09:07.381Z,4.50
2018-02-24T23:11:37.405Z,4.50
2018-02-24T23:14:06.912Z,3.95
2018-02-24T23:16:37.174Z,4.22
2018-02-24T23:19:07.431Z,4.57
2018-02-24T23:21:37.541Z,4.05
2018-02-24T23:24:07.371Z,5.00
2018-02-24T23:26:37.782Z,5.10
2018-02-24T23:29:08.709Z,4.50
2018-02-24T23:31:38.390Z,4.10
2018-02-24T23:34:08.127Z,5.15
2018-02-24T23:36:37.794Z,7.35
2018-02-24T23:39:07.916Z,6.78
2018-02-24T23:41:38.236Z,7.87
2018-02-24T23:44:08.057Z,8.35
2018-02-24T23:46:37.780Z,7.97
2018-02-24T23:49:07.702Z,10.00
2018-02-24T23:51:37.533Z,7.72
2018-02-24T23:54:07.001Z,7.15
2018-02-24T23:56:41.947Z,9.23
2018-02-24T23:59:20.523Z,10.00
